createdAt,value
2022-08-19T00:03:42.943Z,11.50
2022-08-19T00:08:45.755Z,10.05
2022-08-19T00:13:49.294Z,10.13
2022-08-19T00:18:51.099Z,9.80
2022-08-19T00:23:53.258Z,9.98
2022-08-19T00:28:55.514Z,10.65
2022-08-19T00:33:57.092Z,10.90
2022-08-19T00:38:59.512Z,10.77
2022-08-19T00:44:05.262Z,10.77
2022-08-19T00:49:15.491Z,11.50
2022-08-19T00:54:17.999Z,10.95
2022-08-19T01:00:01.049Z,10.90
2022-08-19T01:04:42.143Z,11.00
2022-08-19T01:09:44.180Z,10.65
2022-08-19T01:14:46.337Z,12.00
2022-08-19T01:19:48.681Z,10.90
2022-08-19T01:24:50.746Z,11.63
2022-08-19T01:29:53.441Z,11.82
2022-08-19T01:34:54.996Z,12.07
2022-08-19T01:39:56.929Z,11.40
2022-08-19T01:44:58.585Z,11.80
2022-08-19T01:50:00.255Z,12.20
2022-08-19T01:55:01.850Z,11.32
2022-08-19T02:00:07.842Z,11.32
2022-08-19T02:05:13.437Z,12.80
2022-08-19T02:10:21.266Z,13.55
2022-08-19T02:15:22.898Z,11.60
2022-08-19T02:20:24.848Z,11.90
2022-08-19T02:25:26.406Z,11.27
2022-08-19T02:30:28.039Z,11.85
2022-08-19T02:35:29.635Z,11.30
2022-08-19T02:40:35.275Z,12.10
2022-08-19T02:45:41.374Z,11.80
2022-08-19T02:50:51.701Z,11.73
2022-08-19T02:55:54.898Z,13.20
2022-08-19T03:00:57.890Z,12.32
2022-08-19T03:06:15.273Z,12.77
2022-08-19T03:11:18.423Z,12.10
2022-08-19T03:16:21.001Z,12.15
2022-08-19T03:21:25.003Z,13.07
2022-08-19T03:26:26.865Z,12.20
2022-08-19T03:31:44.610Z,12.05
2022-08-19T03:36:50.107Z,13.00
2022-08-19T03:42:32.205Z,13.48
2022-08-19T03:47:17.896Z,13.65
2022-08-19T03:52:19.496Z,14.55
2022-08-19T03:57:21.559Z,13.73
2022-08-19T04:02:26.745Z,13.25
2022-08-19T04:07:28.375Z,13.77
2022-08-19T04:12:29.919Z,13.43
2022-08-19T04:17:31.476Z,13.50
2022-08-19T04:22:33.022Z,12.55
2022-08-19T04:27:35.054Z,12.05
2022-08-19T04:32:36.576Z,14.13
2022-08-19T04:37:39.283Z,13.73
2022-08-19T04:42:40.852Z,14.00
2022-08-19T04:47:49.187Z,13.75
2022-08-19T04:53:00.145Z,14.60
2022-08-19T04:58:02.893Z,14.98
2022-08-19T05:03:04.430Z,13.82
2022-08-19T05:08:09.359Z,13.02
2022-08-19T05:13:13.251Z,13.65
2022-08-19T05:18:33.167Z,13.07
2022-08-19T05:23:34.734Z,14.32
2022-08-19T05:28:36.279Z,15.73
2022-08-19T05:33:38.476Z,15.27
2022-08-19T05:38:40.029Z,15.43
2022-08-19T05:43:41.643Z,14.88
2022-08-19T05:48:43.197Z,14.18
2022-08-19T05:53:46.328Z,13.75
2022-08-19T05:58:48.189Z,12.82
2022-08-19T06:03:49.810Z,13.18
2022-08-19T06:08:51.653Z,12.32
2022-08-19T06:13:59.641Z,11.45
2022-08-19T06:19:04.705Z,10.38
2022-08-19T06:24:08.145Z,8.88
2022-08-19T06:29:11.570Z,9.18
2022-08-19T06:34:28.226Z,8.50
2022-08-19T06:39:32.189Z,8.43
2022-08-19T06:44:43.325Z,8.77
2022-08-19T06:49:45.234Z,9.55
2022-08-19T06:54:56.411Z,9.70
2022-08-19T06:59:58.464Z,9.73
2022-08-19T07:05:00.329Z,10.90
2022-08-19T07:10:04.865Z,11.00
2022-08-19T07:15:09.725Z,11.30
2022-08-19T07:20:11.878Z,10.68
2022-08-19T07:25:14.243Z,10.27
2022-08-19T07:30:16.013Z,11.18
2022-08-19T07:35:20.322Z,11.63
2022-08-19T07:40:22.085Z,12.00
2022-08-19T07:45:23.729Z,12.35
2022-08-19T07:50:25.354Z,11.57
2022-08-19T07:55:41.740Z,11.32
2022-08-19T08:00:46.552Z,12.00
2022-08-19T08:06:07.191Z,12.80
2022-08-19T08:11:09.395Z,12.50
2022-08-19T08:16:14.213Z,13.40
2022-08-19T08:21:16.276Z,12.95
2022-08-19T08:26:19.271Z,11.75
2022-08-19T08:31:21.120Z,12.43
2022-08-19T08:36:22.678Z,11.13
2022-08-19T08:41:50.263Z,10.07
2022-08-19T08:46:57.626Z,10.10
2022-08-19T08:52:15.163Z,9.50
2022-08-19T08:58:00.240Z,9.30
2022-08-19T09:03:04.413Z,8.63
2022-08-19T09:08:47.570Z,8.65
2022-08-19T09:14:01.369Z,9.75
2022-08-19T09:19:06.360Z,10.05
2022-08-19T09:24:08.120Z,11.07
2022-08-19T09:29:09.999Z,11.38
2022-08-19T09:34:21.001Z,11.43
2022-08-19T09:39:23.690Z,11.50
2022-08-19T09:44:25.329Z,10.73
2022-08-19T09:49:28.802Z,11.63
2022-08-19T09:54:30.504Z,12.45
2022-08-19T09:59:32.366Z,11.38
2022-08-19T10:04:53.839Z,11.07
2022-08-19T10:09:55.569Z,10.02
2022-08-19T10:14:57.810Z,9.75
2022-08-19T10:19:59.422Z,8.60
2022-08-19T10:25:01.877Z,8.07
2022-08-19T10:30:04.004Z,7.93
2022-08-19T10:35:11.694Z,7.93
2022-08-19T10:40:17.727Z,7.68
2022-08-19T10:45:19.387Z,7.70
2022-08-19T10:50:56.555Z,7.63
2022-08-19T10:56:16.489Z,7.85
2022-08-19T11:01:18.085Z,7.43
2022-08-19T11:06:20.585Z,6.60
2022-08-19T11:11:22.817Z,6.18
2022-08-19T11:16:27.606Z,7.15
2022-08-19T11:21:49.657Z,6.95
2022-08-19T11:26:53.792Z,6.32
2022-08-19T11:31:55.881Z,8.48
2022-08-19T11:37:00.634Z,9.25
2022-08-19T11:42:25.445Z,8.73
2022-08-19T11:47:27.184Z,9.20
2022-08-19T11:52:30.700Z,8.27
2022-08-19T11:57:32.585Z,9.40
2022-08-19T12:02:34.559Z,9.63
2022-08-19T12:07:36.857Z,10.10
2022-08-19T12:12:43.270Z,11.45
2022-08-19T12:17:44.919Z,13.13
2022-08-19T12:22:46.964Z,13.43
2022-08-19T12:27:56.739Z,14.25
2022-08-19T12:32:58.949Z,14.77
2022-08-19T12:38:02.675Z,14.55
2022-08-19T12:43:05.154Z,15.05
2022-08-19T12:48:33.506Z,14.00
2022-08-19T12:53:31.441Z,17.75
2022-08-19T12:58:35.416Z,15.82
2022-08-19T13:03:40.586Z,15.48
2022-08-19T13:08:42.818Z,15.07
2022-08-19T13:13:51.215Z,13.35
2022-08-19T13:18:52.928Z,13.73
2022-08-19T13:23:55.207Z,14.48
2022-08-19T13:29:15.538Z,15.02
2022-08-19T13:34:20.113Z,14.40
2022-08-19T13:39:23.941Z,17.08
2022-08-19T13:44:25.695Z,14.30
2022-08-19T13:49:31.913Z,14.02
2022-08-19T13:54:33.640Z,14.90
2022-08-19T13:59:35.458Z,14.95
2022-08-19T14:04:38.465Z,15.80
2022-08-19T14:09:40.122Z,17.02
2022-08-19T14:14:41.727Z,16.45
2022-08-19T14:19:43.869Z,17.67
2022-08-19T14:24:51.113Z,17.73
2022-08-19T14:29:53.444Z,16.55
2022-08-19T14:34:55.539Z,19.67
2022-08-19T14:39:57.247Z,18.98
2022-08-19T14:45:00.351Z,19.67
2022-08-19T14:50:05.150Z,20.48
2022-08-19T14:55:07.456Z,19.13
2022-08-19T15:00:16.507Z,20.05
2022-08-19T15:05:18.401Z,20.42
2022-08-19T15:10:20.077Z,19.38
2022-08-19T15:15:22.976Z,19.80
2022-08-19T15:20:25.110Z,19.48
2022-08-19T15:25:27.991Z,20.42
2022-08-19T15:30:29.899Z,20.17
2022-08-19T15:35:31.450Z,20.02
2022-08-19T15:40:33.011Z,21.10
2022-08-19T15:45:34.619Z,23.55
2022-08-19T15:50:36.321Z,20.50
2022-08-19T15:55:43.971Z,19.63
2022-08-19T16:01:14.494Z,19.45
2022-08-19T16:06:27.998Z,19.23
2022-08-19T16:11:32.668Z,19.98
2022-08-19T16:16:34.586Z,19.38
2022-08-19T16:21:37.086Z,20.02
2022-08-19T16:26:40.768Z,18.67
2022-08-19T16:31:44.168Z,17.55
2022-08-19T16:36:45.761Z,16.98
2022-08-19T16:41:47.428Z,16.75
2022-08-19T16:46:58.522Z,16.52
2022-08-19T16:52:02.537Z,15.38
2022-08-19T16:57:06.690Z,17.08
2022-08-19T17:02:14.499Z,16.25
2022-08-19T17:07:16.059Z,16.30
2022-08-19T17:12:17.720Z,16.15
2022-08-19T17:17:19.766Z,16.20
2022-08-19T17:22:21.345Z,16.23
2022-08-19T17:27:23.197Z,14.70
2022-08-19T17:32:25.059Z,14.48
2022-08-19T17:37:28.137Z,15.10
2022-08-19T17:42:29.866Z,13.32
2022-08-19T17:47:31.454Z,14.13
2022-08-19T17:52:33.344Z,12.75
2022-08-19T17:57:35.356Z,13.07
2022-08-19T18:02:48.030Z,14.05
2022-08-19T18:07:53.278Z,12.63
2022-08-19T18:12:55.849Z,14.07
2022-08-19T18:17:58.264Z,13.52
2022-08-19T18:23:44.078Z,13.93
2022-08-19T18:28:23.888Z,13.73
2022-08-19T18:33:25.869Z,15.23
2022-08-19T18:38:46.139Z,15.65
2022-08-19T18:44:06.997Z,13.95
2022-08-19T18:49:10.378Z,14.90
2022-08-19T18:54:12.583Z,15.25
2022-08-19T18:59:14.259Z,15.50
2022-08-19T19:04:17.700Z,14.98
2022-08-19T19:09:21.786Z,15.13
2022-08-19T19:14:50.641Z,15.52
2022-08-19T19:19:52.230Z,15.80
2022-08-19T19:24:56.734Z,18.35
2022-08-19T19:30:14.252Z,17.45
2022-08-19T19:35:15.805Z,15.95
2022-08-19T19:40:17.469Z,18.63
2022-08-19T19:45:19.114Z,19.05
2022-08-19T19:50:20.746Z,18.92
2022-08-19T19:55:22.400Z,18.70
2022-08-19T20:00:25.267Z,20.50
2022-08-19T20:05:26.951Z,19.17
2022-08-19T20:10:28.591Z,18.10
2022-08-19T20:15:32.131Z,19.80
2022-08-19T20:20:34.234Z,17.38
2022-08-19T20:25:38.124Z,17.20
2022-08-19T20:30:46.627Z,17.55
2022-08-19T20:35:49.720Z,17.42
2022-08-19T20:40:52.721Z,17.95
2022-08-19T20:45:55.731Z,18.60
2022-08-19T20:50:57.530Z,16.75
2022-08-19T20:55:59.879Z,16.75
2022-08-19T21:01:03.278Z,16.90
2022-08-19T21:06:05.208Z,15.30
2022-08-19T21:11:07.524Z,17.02
2022-08-19T21:16:09.317Z,15.48
2022-08-19T21:21:11.113Z,15.02
2022-08-19T21:26:12.673Z,15.23
2022-08-19T21:31:15.788Z,16.23
2022-08-19T21:36:17.530Z,14.55
2022-08-19T21:41:19.142Z,15.75
2022-08-19T21:46:20.832Z,15.15
2022-08-19T21:51:22.411Z,14.40
2022-08-19T21:56:24.421Z,15.32
2022-08-19T22:01:27.123Z,14.80
2022-08-19T22:06:28.885Z,14.35
2022-08-19T22:11:30.508Z,16.08
2022-08-19T22:16:32.695Z,15.57
2022-08-19T22:21:40.258Z,16.40
2022-08-19T22:26:42.236Z,14.65
2022-08-19T22:31:44.803Z,15.52
2022-08-19T22:36:46.453Z,15.25
2022-08-19T22:41:48.664Z,14.90
2022-08-19T22:46:50.263Z,15.18
2022-08-19T22:52:10.521Z,14.82
2022-08-19T22:57:12.216Z,14.93
2022-08-19T23:02:24.143Z,15.98
2022-08-19T23:07:26.187Z,15.48
2022-08-19T23:12:30.763Z,14.85
2022-08-19T23:17:32.350Z,16.23
2022-08-19T23:22:35.115Z,15.57
2022-08-19T23:27:55.257Z,17.45
2022-08-19T23:33:12.248Z,17.30
2022-08-19T23:38:14.465Z,16.80
2022-08-19T23:43:20.863Z,15.48
2022-08-19T23:48:28.353Z,17.83
2022-08-19T23:53:30.392Z,18.92
2022-08-19T23:58:31.959Z,17.77
